createdAt,value
2019-02-16T00:00:02.851Z,12.15
2019-02-16T00:02:33.166Z,11.68
2019-02-16T00:05:01.972Z,11.95
2019-02-16T00:07:30.715Z,11.93
2019-02-16T00:09:59.465Z,12.90
2019-02-16T00:12:29.627Z,13.18
2019-02-16T00:14:58.372Z,12.20
2019-02-16T00:17:27.146Z,13.08
2019-02-16T00:19:55.957Z,12.07
2019-02-16T00:22:24.805Z,12.75
2019-02-16T00:24:53.873Z,13.58
2019-02-16T00:27:23.086Z,13.25
2019-02-16T00:29:51.831Z,13.88
2019-02-16T00:32:20.575Z,12.90
2019-02-16T00:34:49.307Z,13.10
2019-02-16T00:37:18.108Z,13.98
2019-02-16T00:39:46.959Z,13.65
2019-02-16T00:42:15.767Z,14.28
2019-02-16T00:44:44.534Z,13.72
2019-02-16T00:47:13.273Z,14.93
2019-02-16T00:49:42.018Z,14.65
2019-02-16T00:52:10.815Z,13.90
2019-02-16T00:54:39.595Z,14.10
2019-02-16T00:57:08.367Z,13.72
2019-02-16T00:59:37.128Z,14.20
2019-02-16T01:02:05.879Z,14.78
2019-02-16T01:04:34.650Z,15.30
2019-02-16T01:07:03.391Z,15.35
2019-02-16T01:09:32.142Z,15.70
2019-02-16T01:12:00.873Z,14.95
2019-02-16T01:14:29.596Z,15.30
2019-02-16T01:16:58.346Z,14.47
2019-02-16T01:19:27.207Z,14.03
2019-02-16T01:21:55.938Z,15.32
2019-02-16T01:24:24.722Z,15.25
2019-02-16T01:26:53.526Z,13.78
2019-02-16T01:29:22.248Z,14.85
2019-02-16T01:31:51.063Z,14.93
2019-02-16T01:34:19.966Z,16.15
2019-02-16T01:36:48.829Z,15.32
2019-02-16T01:39:17.716Z,16.37
2019-02-16T01:41:47.610Z,17.00
2019-02-16T01:44:16.949Z,16.00
2019-02-16T01:46:45.862Z,15.90
2019-02-16T01:49:14.684Z,16.67
2019-02-16T01:51:43.409Z,16.93
2019-02-16T01:54:12.224Z,15.95
2019-02-16T01:56:41.188Z,17.35
2019-02-16T01:59:10.080Z,17.17
2019-02-16T02:01:39.227Z,17.30
2019-02-16T02:04:08.310Z,17.05
2019-02-16T02:06:37.299Z,17.62
2019-02-16T02:09:06.389Z,16.93
2019-02-16T02:11:35.356Z,16.77
2019-02-16T02:14:04.322Z,18.50
2019-02-16T02:16:33.304Z,16.62
2019-02-16T02:19:02.277Z,17.35
2019-02-16T02:21:31.157Z,18.07
2019-02-16T02:24:00.162Z,18.80
2019-02-16T02:26:29.301Z,17.25
2019-02-16T02:28:58.438Z,17.48
2019-02-16T02:31:27.386Z,18.40
2019-02-16T02:33:56.387Z,18.75
2019-02-16T02:36:25.273Z,17.77
2019-02-16T02:38:54.355Z,17.75
2019-02-16T02:41:23.450Z,18.17
2019-02-16T02:43:52.377Z,18.92
2019-02-16T02:46:24.223Z,18.30
2019-02-16T02:48:53.196Z,18.87
2019-02-16T02:51:25.169Z,19.05
2019-02-16T02:53:54.414Z,18.55
2019-02-16T02:56:25.633Z,18.30
2019-02-16T02:58:54.596Z,19.23
2019-02-16T03:01:23.522Z,19.60
2019-02-16T03:03:52.490Z,20.05
2019-02-16T03:06:21.468Z,18.98
2019-02-16T03:08:50.520Z,19.20
2019-02-16T03:11:19.517Z,18.57
2019-02-16T03:13:48.505Z,19.10
2019-02-16T03:16:17.398Z,19.60
2019-02-16T03:18:46.461Z,18.67
2019-02-16T03:21:15.502Z,19.45
2019-02-16T03:23:44.491Z,19.60
2019-02-16T03:26:31.453Z,20.00
2019-02-16T03:29:11.513Z,19.70
2019-02-16T03:32:09.077Z,18.70
2019-02-16T03:35:20.638Z,19.90
2019-02-16T03:38:18.571Z,18.52
2019-02-16T03:40:48.863Z,20.15
2019-02-16T03:43:17.933Z,19.73
2019-02-16T03:45:46.872Z,20.15
2019-02-16T03:48:15.804Z,20.37
2019-02-16T03:50:44.672Z,19.20
2019-02-16T03:53:13.716Z,19.15
2019-02-16T03:55:42.744Z,19.48
2019-02-16T03:58:11.808Z,21.05
2019-02-16T04:00:41.677Z,21.48
2019-02-16T04:03:10.645Z,19.87
2019-02-16T04:05:39.585Z,19.77
2019-02-16T04:08:08.491Z,20.68
2019-02-16T04:10:37.342Z,21.02
2019-02-16T04:13:06.285Z,20.32
2019-02-16T04:15:35.298Z,20.62
2019-02-16T04:18:04.226Z,22.07
2019-02-16T04:20:33.066Z,20.10
2019-02-16T04:23:01.967Z,20.12
2019-02-16T04:25:30.811Z,19.77
2019-02-16T04:27:59.705Z,19.60
2019-02-16T04:30:28.633Z,19.77
2019-02-16T04:32:57.487Z,20.43
2019-02-16T04:35:29.015Z,18.77
2019-02-16T04:37:58.004Z,19.55
2019-02-16T04:40:26.902Z,20.68
2019-02-16T04:42:55.824Z,19.35
2019-02-16T04:45:24.729Z,22.25
2019-02-16T04:47:53.618Z,20.55
2019-02-16T04:50:25.182Z,21.17
2019-02-16T04:52:54.227Z,20.10
2019-02-16T04:55:25.283Z,20.12
2019-02-16T04:57:54.267Z,21.55
2019-02-16T05:00:26.986Z,21.62
2019-02-16T05:06:02.627Z,22.30
2019-02-16T05:08:33.498Z,21.12
2019-02-16T05:11:02.247Z,20.88
2019-02-16T05:13:31.198Z,22.70
2019-02-16T05:16:00.034Z,21.23
2019-02-16T05:18:28.887Z,21.05
2019-02-16T05:20:57.629Z,20.57
2019-02-16T05:23:26.470Z,22.10
2019-02-16T05:25:55.251Z,20.95
2019-02-16T05:28:24.136Z,21.60
2019-02-16T05:30:52.891Z,22.50
2019-02-16T05:33:21.691Z,22.40
2019-02-16T05:35:50.708Z,20.97
2019-02-16T05:38:19.494Z,19.65
2019-02-16T05:40:48.322Z,21.80
2019-02-16T05:43:17.111Z,19.67
2019-02-16T05:45:45.986Z,20.15
2019-02-16T05:48:14.823Z,19.87
2019-02-16T05:50:43.567Z,21.40
2019-02-16T05:53:12.505Z,20.48
2019-02-16T05:55:41.505Z,20.35
2019-02-16T05:58:10.559Z,20.77
2019-02-16T06:00:39.527Z,20.20
2019-02-16T06:03:08.556Z,20.77
2019-02-16T06:05:37.384Z,19.73
2019-02-16T06:08:06.273Z,20.80
2019-02-16T06:10:35.050Z,21.20
2019-02-16T06:13:03.921Z,21.75
2019-02-16T06:15:32.875Z,20.95
2019-02-16T06:18:01.627Z,20.50
2019-02-16T06:20:30.464Z,20.50
2019-02-16T06:23:04.230Z,20.12
2019-02-16T06:25:30.923Z,21.05
2019-02-16T06:27:59.943Z,22.40
2019-02-16T06:30:28.694Z,19.48
2019-02-16T06:32:58.019Z,20.55
2019-02-16T06:35:39.572Z,21.25
2019-02-16T06:38:08.855Z,22.15
2019-02-16T06:40:37.581Z,20.57
2019-02-16T06:43:06.340Z,20.60
2019-02-16T06:45:36.926Z,20.88
2019-02-16T06:48:05.797Z,22.13
2019-02-16T06:50:36.937Z,21.27
2019-02-16T06:53:12.888Z,21.35
2019-02-16T06:55:57.614Z,21.73
2019-02-16T06:58:26.362Z,22.85
2019-02-16T07:00:57.094Z,20.85
2019-02-16T07:03:25.573Z,22.70
2019-02-16T07:05:54.703Z,21.55
2019-02-16T07:08:23.485Z,22.30
2019-02-16T07:10:52.232Z,22.50
2019-02-16T07:13:21.390Z,22.55
2019-02-16T07:16:08.098Z,22.40
2019-02-16T07:18:45.397Z,22.05
2019-02-16T07:21:14.335Z,22.98
2019-02-16T07:23:43.107Z,21.25
2019-02-16T07:26:11.923Z,21.20
2019-02-16T07:28:42.839Z,21.55
2019-02-16T07:31:11.566Z,22.32
2019-02-16T07:33:40.383Z,23.15
2019-02-16T07:36:09.343Z,22.32
2019-02-16T07:38:38.171Z,23.90
2019-02-16T07:41:06.906Z,22.95
2019-02-16T07:43:57.471Z,22.52
2019-02-16T07:46:48.666Z,24.25
2019-02-16T07:49:28.138Z,22.65
2019-02-16T07:52:07.352Z,22.75
2019-02-16T07:55:04.434Z,22.40
2019-02-16T07:57:55.554Z,23.27
2019-02-16T08:00:46.830Z,21.87
2019-02-16T08:03:33.667Z,22.37
2019-02-16T08:06:13.072Z,21.95
2019-02-16T08:09:00.186Z,22.07
2019-02-16T08:11:44.714Z,23.47
2019-02-16T08:14:45.718Z,22.58
2019-02-16T08:17:42.747Z,21.75
2019-02-16T08:20:29.931Z,21.48
2019-02-16T08:23:39.982Z,23.67
2019-02-16T08:26:12.984Z,21.90
2019-02-16T08:28:55.654Z,22.52
2019-02-16T08:31:37.514Z,23.95
2019-02-16T08:34:21.604Z,23.00
2019-02-16T08:36:56.948Z,22.45
2019-02-16T08:39:50.021Z,23.87
2019-02-16T08:42:37.447Z,24.52
2019-02-16T08:45:16.858Z,23.07
2019-02-16T08:48:07.891Z,21.80
2019-02-16T08:51:14.274Z,23.52
2019-02-16T08:54:20.055Z,21.95
2019-02-16T08:57:14.069Z,22.85
2019-02-16T08:59:54.832Z,24.05
2019-02-16T09:02:31.625Z,23.00
2019-02-16T09:05:07.341Z,22.45
2019-02-16T09:08:02.475Z,23.35
2019-02-16T09:10:42.361Z,24.15
2019-02-16T09:13:36.388Z,23.05
2019-02-16T09:16:27.196Z,23.10
2019-02-16T09:19:06.529Z,24.27
2019-02-16T09:21:57.749Z,23.27
2019-02-16T09:24:47.807Z,21.93
2019-02-16T09:27:54.155Z,24.30
2019-02-16T09:30:42.754Z,22.87
2019-02-16T09:33:36.317Z,22.37
2019-02-16T09:36:16.071Z,24.15
2019-02-16T09:39:13.299Z,22.02
2019-02-16T09:41:50.150Z,22.82
2019-02-16T09:44:27.952Z,21.95
2019-02-16T09:47:17.947Z,22.02
2019-02-16T09:50:00.342Z,23.05
2019-02-16T09:52:39.388Z,21.33
2019-02-16T09:55:33.115Z,22.07
2019-02-16T09:58:19.970Z,23.22
2019-02-16T10:01:07.754Z,21.60
2019-02-16T10:04:01.494Z,21.45
2019-02-16T10:06:48.107Z,22.27
2019-02-16T10:09:42.496Z,22.47
2019-02-16T10:12:29.568Z,23.20
2019-02-16T10:15:12.559Z,21.37
2019-02-16T10:18:18.534Z,22.40
2019-02-16T10:21:00.695Z,22.80
2019-02-16T10:23:49.870Z,22.83
2019-02-16T10:26:36.602Z,22.43
2019-02-16T10:29:27.206Z,22.67
2019-02-16T10:32:10.730Z,21.95
2019-02-16T10:34:58.940Z,22.73
2019-02-16T10:37:35.123Z,22.20
2019-02-16T10:40:33.337Z,22.93
2019-02-16T10:43:19.208Z,22.97
2019-02-16T10:46:14.091Z,22.97
2019-02-16T10:48:49.166Z,23.47
2019-02-16T10:51:23.857Z,23.00
2019-02-16T10:54:10.597Z,23.07
2019-02-16T10:56:49.991Z,23.57
2019-02-16T10:59:38.196Z,24.00
2019-02-16T11:02:16.319Z,23.57
2019-02-16T11:05:03.246Z,24.57
2019-02-16T11:07:54.364Z,22.57
2019-02-16T11:10:34.779Z,23.40
2019-02-16T11:13:25.390Z,21.97
2019-02-16T11:16:12.930Z,22.27
2019-02-16T11:19:11.218Z,23.03
2019-02-16T11:22:17.658Z,22.47
2019-02-16T11:25:04.207Z,22.53
2019-02-16T11:27:57.551Z,23.23
2019-02-16T11:30:38.224Z,23.00
2019-02-16T11:33:26.246Z,22.90
2019-02-16T11:36:13.384Z,23.70
2019-02-16T11:38:58.835Z,22.67
2019-02-16T11:41:38.780Z,22.50
2019-02-16T11:44:38.760Z,23.00
2019-02-16T11:47:15.115Z,22.63
2019-02-16T11:50:12.230Z,23.17
2019-02-16T11:53:01.850Z,22.67
2019-02-16T11:56:08.089Z,23.13
2019-02-16T11:58:55.335Z,22.33
2019-02-16T12:01:58.733Z,22.00
2019-02-16T12:04:36.242Z,22.93
2019-02-16T12:07:26.110Z,22.53
2019-02-16T12:10:15.703Z,22.27
2019-02-16T12:13:10.411Z,23.43
2019-02-16T12:16:04.418Z,22.37
2019-02-16T12:19:04.702Z,23.27
2019-02-16T12:21:55.271Z,21.53
2019-02-16T12:24:41.963Z,24.97
2019-02-16T12:27:35.791Z,24.27
2019-02-16T12:30:31.471Z,22.80
2019-02-16T12:33:12.946Z,22.70
2019-02-16T12:35:49.174Z,23.60
2019-02-16T12:38:32.398Z,23.67
2019-02-16T12:41:09.606Z,23.17
2019-02-16T12:44:03.778Z,23.20
2019-02-16T12:46:47.253Z,23.37
2019-02-16T12:49:33.810Z,23.33
2019-02-16T12:52:20.222Z,23.43
2019-02-16T12:54:55.989Z,23.23
2019-02-16T12:57:41.699Z,24.60
2019-02-16T13:00:30.346Z,22.77
2019-02-16T13:03:14.534Z,24.83
2019-02-16T13:05:53.962Z,24.83
2019-02-16T13:08:31.059Z,24.57
2019-02-16T13:11:09.136Z,23.33
2019-02-16T13:14:10.258Z,24.57
2019-02-16T13:17:03.426Z,23.67
2019-02-16T13:19:42.117Z,24.27
2019-02-16T13:22:22.822Z,24.83
2019-02-16T13:25:00.841Z,23.47
2019-02-16T13:27:53.683Z,23.63
2019-02-16T13:30:53.902Z,22.80
2019-02-16T13:33:47.701Z,24.00
2019-02-16T13:36:34.795Z,24.07
2019-02-16T13:39:21.422Z,23.37
2019-02-16T13:42:08.209Z,22.77
2019-02-16T13:45:14.558Z,22.63
2019-02-16T13:47:51.172Z,22.77
2019-02-16T13:50:42.470Z,24.07
2019-02-16T13:53:30.378Z,22.40
2019-02-16T13:56:21.415Z,23.80
2019-02-16T13:59:24.735Z,23.63
2019-02-16T14:02:15.310Z,22.33
2019-02-16T14:04:57.930Z,23.67
2019-02-16T14:07:47.097Z,22.43
2019-02-16T14:10:22.761Z,21.40
2019-02-16T14:13:04.760Z,21.80
2019-02-16T14:15:54.646Z,22.47
2019-02-16T14:18:23.406Z,22.00
2019-02-16T14:20:53.624Z,22.40
2019-02-16T14:23:23.572Z,23.60
2019-02-16T14:25:52.464Z,22.33
2019-02-16T14:28:21.434Z,23.13
2019-02-16T14:30:50.296Z,23.13
2019-02-16T14:33:19.190Z,23.13
2019-02-16T14:35:50.424Z,23.97
2019-02-16T14:38:50.386Z,22.90
2019-02-16T14:41:19.458Z,21.97
2019-02-16T14:43:48.258Z,23.60
2019-02-16T14:46:17.175Z,22.67
2019-02-16T14:48:46.062Z,23.73
2019-02-16T14:51:14.951Z,22.80
2019-02-16T14:53:44.146Z,23.63
2019-02-16T14:56:13.158Z,25.80
2019-02-16T14:58:41.952Z,24.97
2019-02-16T15:01:10.844Z,24.70
2019-02-16T15:03:41.779Z,23.97
2019-02-16T15:06:10.847Z,24.23
2019-02-16T15:08:39.706Z,25.07
2019-02-16T15:11:08.411Z,22.53
2019-02-16T15:13:37.178Z,23.43
2019-02-16T15:16:06.062Z,25.73
2019-02-16T15:18:35.250Z,23.57
2019-02-16T15:21:04.056Z,24.87
2019-02-16T15:23:34.346Z,25.87
2019-02-16T15:26:03.122Z,24.50
2019-02-16T15:28:32.083Z,24.87
2019-02-16T15:31:00.821Z,25.53
2019-02-16T15:33:29.626Z,25.77
2019-02-16T15:35:58.360Z,26.60
2019-02-16T15:38:27.078Z,24.43
2019-02-16T15:40:55.941Z,26.43
2019-02-16T15:43:24.658Z,25.33
2019-02-16T15:45:53.381Z,26.13
2019-02-16T15:48:22.210Z,26.10
2019-02-16T15:50:50.967Z,26.47
2019-02-16T15:53:19.670Z,26.80
2019-02-16T15:55:48.409Z,26.87
2019-02-16T15:58:17.221Z,28.80
2019-02-16T16:00:46.064Z,28.40
2019-02-16T16:03:15.650Z,28.63
2019-02-16T16:05:44.352Z,29.20
2019-02-16T16:08:31.098Z,29.07
2019-02-16T16:11:09.485Z,29.70
2019-02-16T16:13:57.302Z,29.30
2019-02-16T16:16:41.866Z,28.03
2019-02-16T16:19:38.730Z,30.13
2019-02-16T16:22:28.194Z,29.67
2019-02-16T16:25:19.111Z,31.10
2019-02-16T16:28:06.903Z,31.47
2019-02-16T16:31:03.687Z,29.30
2019-02-16T16:34:06.841Z,30.13
2019-02-16T16:36:54.738Z,33.77
2019-02-16T16:39:38.568Z,29.33
2019-02-16T16:42:44.096Z,28.97
2019-02-16T16:45:47.406Z,31.20
2019-02-16T16:48:24.559Z,29.37
2019-02-16T16:50:59.829Z,37.77
2019-02-16T16:53:38.928Z,31.17
2019-02-16T16:56:28.742Z,33.30
2019-02-16T16:59:14.027Z,32.80
2019-02-16T17:01:59.883Z,32.10
2019-02-16T17:04:38.831Z,33.87
2019-02-16T17:07:33.037Z,35.50
2019-02-16T17:10:23.921Z,32.90
2019-02-16T17:13:17.486Z,32.77
2019-02-16T17:16:17.774Z,33.50
2019-02-16T17:18:57.025Z,34.37
2019-02-16T17:21:59.695Z,32.43
2019-02-16T17:24:35.837Z,33.33
2019-02-16T17:27:33.968Z,33.07
2019-02-16T17:30:37.001Z,35.67
2019-02-16T17:33:23.683Z,34.20
2019-02-16T17:36:23.614Z,33.40
2019-02-16T17:39:10.098Z,34.67
2019-02-16T17:41:45.099Z,33.53
2019-02-16T17:44:32.163Z,37.30
2019-02-16T17:47:35.338Z,36.70
2019-02-16T17:50:12.707Z,35.33
2019-02-16T17:53:11.978Z,36.50
2019-02-16T17:55:48.853Z,41.05
2019-02-16T17:58:31.794Z,40.43
2019-02-16T18:01:14.192Z,37.53
2019-02-16T18:04:02.244Z,40.57
2019-02-16T18:06:53.417Z,37.50
2019-02-16T18:09:45.797Z,37.60
2019-02-16T18:12:39.762Z,36.00
2019-02-16T18:15:34.192Z,35.50
2019-02-16T18:18:34.785Z,36.63
2019-02-16T18:21:22.725Z,35.28
2019-02-16T18:24:13.754Z,36.30
2019-02-16T18:27:01.933Z,36.27
2019-02-16T18:29:56.322Z,38.53
2019-02-16T18:32:44.415Z,35.85
2019-02-16T18:35:42.007Z,37.03
2019-02-16T18:38:29.409Z,37.33
2019-02-16T18:41:29.795Z,37.57
2019-02-16T18:44:23.747Z,36.20
2019-02-16T18:47:10.786Z,37.42
2019-02-16T18:49:57.416Z,37.55
2019-02-16T18:52:57.748Z,37.25
2019-02-16T18:55:45.564Z,35.97
2019-02-16T18:58:29.965Z,39.92
2019-02-16T19:01:16.572Z,50.73
2019-02-16T19:03:58.083Z,37.73
2019-02-16T19:06:43.754Z,36.98
2019-02-16T19:09:21.839Z,36.35
2019-02-16T19:12:18.904Z,35.65
2019-02-16T19:14:59.870Z,38.53
2019-02-16T19:17:38.491Z,37.28
2019-02-16T19:20:25.676Z,40.15
2019-02-16T19:23:13.458Z,43.55
2019-02-16T19:26:06.759Z,42.10
2019-02-16T19:28:46.143Z,40.90
2019-02-16T19:31:40.086Z,36.30
2019-02-16T19:34:26.952Z,35.80
2019-02-16T19:37:21.067Z,39.15
2019-02-16T19:40:27.287Z,41.50
2019-02-16T19:43:13.478Z,40.85
2019-02-16T19:45:56.662Z,39.25
2019-02-16T19:48:40.923Z,38.95
2019-02-16T19:51:27.603Z,39.83
2019-02-16T19:54:14.486Z,40.88
2019-02-16T19:57:05.434Z,39.10
2019-02-16T19:59:42.866Z,37.80
2019-02-16T20:02:24.894Z,37.53
2019-02-16T20:05:24.854Z,36.63
2019-02-16T20:08:15.385Z,36.60
2019-02-16T20:10:50.406Z,35.20
2019-02-16T20:13:25.816Z,35.20
2019-02-16T20:16:04.574Z,36.08
2019-02-16T20:18:52.372Z,38.33
2019-02-16T20:21:38.114Z,39.08
2019-02-16T20:24:18.768Z,41.20
2019-02-16T20:27:18.926Z,39.23
2019-02-16T20:29:56.229Z,39.95
2019-02-16T20:32:33.460Z,39.63
2019-02-16T20:35:22.087Z,37.88
2019-02-16T20:38:07.702Z,39.05
2019-02-16T20:40:46.958Z,39.63
2019-02-16T20:43:37.582Z,37.15
2019-02-16T20:46:25.610Z,37.15
2019-02-16T20:49:16.792Z,38.13
2019-02-16T20:52:00.351Z,36.17
2019-02-16T20:54:42.510Z,39.65
2019-02-16T20:57:30.320Z,39.95
2019-02-16T21:00:16.930Z,39.88
2019-02-16T21:03:23.098Z,39.05
2019-02-16T21:06:07.362Z,37.42
2019-02-16T21:09:04.455Z,35.55
2019-02-16T21:11:41.312Z,38.05
2019-02-16T21:14:19.789Z,41.53
2019-02-16T21:17:04.858Z,37.40
2019-02-16T21:19:51.522Z,39.55
2019-02-16T21:22:38.318Z,40.35
2019-02-16T21:25:24.038Z,39.55
2019-02-16T21:28:10.726Z,42.70
2019-02-16T21:30:58.306Z,44.03
2019-02-16T21:33:46.171Z,45.28
2019-02-16T21:36:34.082Z,43.25
2019-02-16T21:39:25.759Z,39.58
2019-02-16T21:42:16.421Z,43.33
2019-02-16T21:45:01.576Z,45.08
2019-02-16T21:47:55.332Z,44.35
2019-02-16T21:50:46.015Z,43.75
2019-02-16T21:53:50.327Z,42.03
2019-02-16T21:56:31.243Z,42.20
2019-02-16T21:59:19.669Z,41.65
2019-02-16T22:02:06.620Z,40.28
2019-02-16T22:04:48.687Z,40.58
2019-02-16T22:07:35.191Z,40.35
2019-02-16T22:10:38.114Z,43.98
2019-02-16T22:13:06.044Z,42.83
2019-02-16T22:15:35.228Z,45.28
2019-02-16T22:18:05.791Z,48.15
2019-02-16T22:20:34.566Z,46.15
2019-02-16T22:23:03.460Z,46.73
2019-02-16T22:25:32.275Z,48.52
2019-02-16T22:28:01.053Z,47.00
2019-02-16T22:30:29.826Z,46.13
2019-02-16T22:32:58.615Z,48.95
2019-02-16T22:35:27.493Z,46.00
2019-02-16T22:37:56.222Z,45.85
2019-02-16T22:40:24.952Z,46.92
2019-02-16T22:42:53.679Z,46.53
2019-02-16T22:45:29.160Z,46.33
2019-02-16T22:47:57.921Z,48.95
2019-02-16T22:50:29.417Z,48.35
2019-02-16T22:52:58.206Z,49.70
2019-02-16T22:55:27.114Z,47.45
2019-02-16T22:57:55.869Z,49.73
2019-02-16T23:00:42.540Z,48.35
2019-02-16T23:03:11.300Z,50.08
2019-02-16T23:05:40.206Z,47.55
2019-02-16T23:08:09.130Z,46.88
2019-02-16T23:10:37.889Z,49.08
2019-02-16T23:13:06.726Z,47.90
2019-02-16T23:15:35.757Z,49.00
2019-02-16T23:18:04.518Z,49.05
2019-02-16T23:20:33.343Z,50.78
2019-02-16T23:23:02.186Z,50.15
2019-02-16T23:25:30.954Z,47.53
2019-02-16T23:27:59.723Z,48.42
2019-02-16T23:30:28.491Z,48.70
2019-02-16T23:32:57.287Z,49.42
2019-02-16T23:35:26.946Z,46.48
2019-02-16T23:37:55.829Z,48.33
2019-02-16T23:40:24.767Z,47.40
2019-02-16T23:42:53.507Z,43.87
2019-02-16T23:45:22.372Z,43.92
2019-02-16T23:47:51.111Z,44.73
2019-02-16T23:50:19.836Z,49.08
2019-02-16T23:52:48.782Z,53.23
2019-02-16T23:55:17.494Z,60.95
2019-02-16T23:57:46.199Z,70.60
